sensor_id;sensor_type;location;lat;lon;timestamp;P1;durP1;ratioP1;P2;durP2;ratioP2
60344;SDS011;46188;52.324;8.032;2023-07-29T00:01:40;6.30;;;4.30;;
60344;SDS011;46188;52.324;8.032;2023-07-29T00:04:06;5.40;;;4.90;;
60344;SDS011;46188;52.324;8.032;2023-07-29T00:06:33;6.35;;;5.32;;
60344;SDS011;46188;52.324;8.032;2023-07-29T00:08:58;5.35;;;4.70;;
60344;SDS011;46188;52.324;8.032;2023-07-29T00:11:23;6.45;;;4.50;;
60344;SDS011;46188;52.324;8.032;2023-07-29T00:13:48;5.25;;;4.75;;
60344;SDS011;46188;52.324;8.032;2023-07-29T00:16:15;6.70;;;5.13;;
60344;SDS011;46188;52.324;8.032;2023-07-29T00:18:42;6.70;;;5.10;;
60344;SDS011;46188;52.324;8.032;2023-07-29T00:21:07;6.38;;;5.15;;
60344;SDS011;46188;52.324;8.032;2023-07-29T00:23:33;5.33;;;4.83;;
60344;SDS011;46188;52.324;8.032;2023-07-29T00:25:58;6.60;;;5.18;;
60344;SDS011;46188;52.324;8.032;2023-07-29T00:28:23;5.40;;;4.90;;
60344;SDS011;46188;52.324;8.032;2023-07-29T00:30:48;6.10;;;5.50;;
60344;SDS011;46188;52.324;8.032;2023-07-29T00:33:14;5.30;;;4.80;;
60344;SDS011;46188;52.324;8.032;2023-07-29T00:35:39;7.05;;;5.13;;
60344;SDS011;46188;52.324;8.032;2023-07-29T00:38:04;5.77;;;5.17;;
60344;SDS011;46188;52.324;8.032;2023-07-29T00:40:29;6.40;;;5.38;;
60344;SDS011;46188;52.324;8.032;2023-07-29T00:42:59;7.95;;;5.28;;
60344;SDS011;46188;52.324;8.032;2023-07-29T00:45:25;5.57;;;4.90;;
60344;SDS011;46188;52.324;8.032;2023-07-29T00:47:52;7.05;;;5.50;;
60344;SDS011;46188;52.324;8.032;2023-07-29T00:50:18;6.40;;;5.20;;
60344;SDS011;46188;52.324;8.032;2023-07-29T00:52:43;5.40;;;4.90;;
60344;SDS011;46188;52.324;8.032;2023-07-29T00:55:09;5.88;;;4.85;;
60344;SDS011;46188;52.324;8.032;2023-07-29T00:57:35;5.57;;;4.60;;
60344;SDS011;46188;52.324;8.032;2023-07-29T01:00:00;5.82;;;4.95;;
60344;SDS011;46188;52.324;8.032;2023-07-29T01:02:27;5.70;;;4.80;;
60344;SDS011;46188;52.324;8.032;2023-07-29T01:04:54;6.20;;;4.88;;
60344;SDS011;46188;52.324;8.032;2023-07-29T01:07:23;6.60;;;4.93;;
60344;SDS011;46188;52.324;8.032;2023-07-29T01:10:03;6.60;;;4.68;;
60344;SDS011;46188;52.324;8.032;2023-07-29T01:12:37;5.13;;;4.63;;
60344;SDS011;46188;52.324;8.032;2023-07-29T01:20:48;7.32;;;5.00;;
60344;SDS011;46188;52.324;8.032;2023-07-29T01:23:25;5.88;;;4.38;;
60344;SDS011;46188;52.324;8.032;2023-07-29T01:25:54;5.13;;;4.63;;
60344;SDS011;46188;52.324;8.032;2023-07-29T01:28:19;5.47;;;4.97;;
60344;SDS011;46188;52.324;8.032;2023-07-29T01:30:45;5.28;;;4.78;;
60344;SDS011;46188;52.324;8.032;2023-07-29T01:33:14;6.53;;;4.40;;
60344;SDS011;46188;52.324;8.032;2023-07-29T01:35:50;6.00;;;4.65;;
60344;SDS011;46188;52.324;8.032;2023-07-29T01:38:20;5.22;;;4.68;;
60344;SDS011;46188;52.324;8.032;2023-07-29T01:40:49;5.50;;;4.80;;
60344;SDS011;46188;52.324;8.032;2023-07-29T01:43:16;5.22;;;4.40;;
60344;SDS011;46188;52.324;8.032;2023-07-29T01:45:43;5.30;;;4.60;;
60344;SDS011;46188;52.324;8.032;2023-07-29T01:48:09;8.65;;;5.20;;
60344;SDS011;46188;52.324;8.032;2023-07-29T01:50:34;6.15;;;4.68;;
60344;SDS011;46188;52.324;8.032;2023-07-29T01:52:59;5.38;;;4.53;;
60344;SDS011;46188;52.324;8.032;2023-07-29T01:55:25;6.63;;;4.55;;
60344;SDS011;46188;52.324;8.032;2023-07-29T01:57:50;5.82;;;5.05;;
60344;SDS011;46188;52.324;8.032;2023-07-29T02:00:16;6.72;;;4.95;;
60344;SDS011;46188;52.324;8.032;2023-07-29T02:02:42;4.90;;;4.40;;
60344;SDS011;46188;52.324;8.032;2023-07-29T02:05:08;5.13;;;4.50;;
60344;SDS011;46188;52.324;8.032;2023-07-29T02:07:33;5.07;;;4.38;;
60344;SDS011;46188;52.324;8.032;2023-07-29T02:09:58;5.55;;;4.00;;
60344;SDS011;46188;52.324;8.032;2023-07-29T02:12:24;4.65;;;4.25;;
60344;SDS011;46188;52.324;8.032;2023-07-29T02:14:49;6.20;;;4.63;;
60344;SDS011;46188;52.324;8.032;2023-07-29T02:17:15;4.65;;;4.10;;
60344;SDS011;46188;52.324;8.032;2023-07-29T02:19:40;6.38;;;4.10;;
60344;SDS011;46188;52.324;8.032;2023-07-29T02:22:05;4.47;;;4.07;;
60344;SDS011;46188;52.324;8.032;2023-07-29T02:24:30;4.65;;;3.95;;
60344;SDS011;46188;52.324;8.032;2023-07-29T02:26:56;4.93;;;4.13;;
60344;SDS011;46188;52.324;8.032;2023-07-29T02:29:21;9.77;;;5.03;;
60344;SDS011;46188;52.324;8.032;2023-07-29T02:31:46;5.95;;;4.47;;
60344;SDS011;46188;52.324;8.032;2023-07-29T02:34:12;5.82;;;4.45;;
60344;SDS011;46188;52.324;8.032;2023-07-29T02:36:38;6.55;;;4.97;;
60344;SDS011;46188;52.324;8.032;2023-07-29T02:39:03;5.55;;;4.80;;
60344;SDS011;46188;52.324;8.032;2023-07-29T02:41:28;6.60;;;5.13;;
60344;SDS011;46188;52.324;8.032;2023-07-29T02:43:53;5.73;;;4.87;;
60344;SDS011;46188;52.324;8.032;2023-07-29T02:46:19;6.30;;;4.87;;
60344;SDS011;46188;52.324;8.032;2023-07-29T02:48:44;5.75;;;5.25;;
60344;SDS011;46188;52.324;8.032;2023-07-29T02:51:09;7.65;;;5.07;;
60344;SDS011;46188;52.324;8.032;2023-07-29T02:53:35;6.00;;;5.40;;
60344;SDS011;46188;52.324;8.032;2023-07-29T02:56:02;6.40;;;5.45;;
60344;SDS011;46188;52.324;8.032;2023-07-29T02:58:27;6.70;;;6.00;;
60344;SDS011;46188;52.324;8.032;2023-07-29T03:00:53;7.45;;;5.50;;
60344;SDS011;46188;52.324;8.032;2023-07-29T03:03:18;6.82;;;5.90;;
60344;SDS011;46188;52.324;8.032;2023-07-29T03:05:44;6.15;;;5.32;;
60344;SDS011;46188;52.324;8.032;2023-07-29T03:08:09;7.25;;;5.47;;
60344;SDS011;46188;52.324;8.032;2023-07-29T03:10:35;6.20;;;5.50;;
60344;SDS011;46188;52.324;8.032;2023-07-29T03:13:01;6.47;;;5.88;;
60344;SDS011;46188;52.324;8.032;2023-07-29T03:15:26;6.22;;;5.63;;
60344;SDS011;46188;52.324;8.032;2023-07-29T03:17:52;10.00;;;6.60;;
60344;SDS011;46188;52.324;8.032;2023-07-29T03:20:17;7.32;;;6.45;;
60344;SDS011;46188;52.324;8.032;2023-07-29T03:22:43;7.80;;;7.10;;
60344;SDS011;46188;52.324;8.032;2023-07-29T03:25:09;8.73;;;6.38;;
60344;SDS011;46188;52.324;8.032;2023-07-29T03:27:34;8.20;;;7.40;;
60344;SDS011;46188;52.324;8.032;2023-07-29T03:30:01;9.10;;;7.47;;
60344;SDS011;46188;52.324;8.032;2023-07-29T03:32:29;10.40;;;8.13;;
60344;SDS011;46188;52.324;8.032;2023-07-29T03:34:54;10.15;;;9.15;;
60344;SDS011;46188;52.324;8.032;2023-07-29T03:37:20;8.90;;;7.93;;
60344;SDS011;46188;52.324;8.032;2023-07-29T03:39:46;9.88;;;8.98;;
60344;SDS011;46188;52.324;8.032;2023-07-29T03:42:11;9.45;;;8.50;;
60344;SDS011;46188;52.324;8.032;2023-07-29T03:44:37;10.47;;;8.43;;
60344;SDS011;46188;52.324;8.032;2023-07-29T03:47:04;12.35;;;9.93;;
60344;SDS011;46188;52.324;8.032;2023-07-29T03:49:30;14.35;;;11.63;;
60344;SDS011;46188;52.324;8.032;2023-07-29T03:51:55;12.17;;;10.63;;
60344;SDS011;46188;52.324;8.032;2023-07-29T03:54:21;11.57;;;10.38;;
60344;SDS011;46188;52.324;8.032;2023-07-29T03:56:46;13.00;;;10.90;;
60344;SDS011;46188;52.324;8.032;2023-07-29T03:59:11;13.23;;;11.37;;
60344;SDS011;46188;52.324;8.032;2023-07-29T04:01:36;13.27;;;11.88;;
60344;SDS011;46188;52.324;8.032;2023-07-29T04:04:02;13.90;;;11.60;;
60344;SDS011;46188;52.324;8.032;2023-07-29T04:06:28;12.82;;;10.77;;
60344;SDS011;46188;52.324;8.032;2023-07-29T04:08:54;13.65;;;12.02;;
60344;SDS011;46188;52.324;8.032;2023-07-29T04:11:19;13.50;;;11.60;;
60344;SDS011;46188;52.324;8.032;2023-07-29T04:13:44;13.18;;;11.45;;
60344;SDS011;46188;52.324;8.032;2023-07-29T04:16:10;14.33;;;12.07;;
60344;SDS011;46188;52.324;8.032;2023-07-29T04:18:35;15.27;;;11.97;;
60344;SDS011;46188;52.324;8.032;2023-07-29T04:21:00;14.40;;;11.40;;
60344;SDS011;46188;52.324;8.032;2023-07-29T04:23:25;13.07;;;11.67;;
60344;SDS011;46188;52.324;8.032;2023-07-29T04:25:51;13.07;;;11.47;;
60344;SDS011;46188;52.324;8.032;2023-07-29T04:28:16;11.85;;;10.65;;
60344;SDS011;46188;52.324;8.032;2023-07-29T04:30:42;14.02;;;12.15;;
60344;SDS011;46188;52.324;8.032;2023-07-29T04:33:07;13.60;;;11.55;;
60344;SDS011;46188;52.324;8.032;2023-07-29T04:35:32;13.15;;;10.98;;
60344;SDS011;46188;52.324;8.032;2023-07-29T04:37:58;13.60;;;12.05;;
60344;SDS011;46188;52.324;8.032;2023-07-29T04:40:23;13.43;;;10.35;;
60344;SDS011;46188;52.324;8.032;2023-07-29T04:42:48;11.47;;;10.30;;
60344;SDS011;46188;52.324;8.032;2023-07-29T04:45:14;13.15;;;11.80;;
60344;SDS011;46188;52.324;8.032;2023-07-29T04:47:41;12.18;;;10.85;;
60344;SDS011;46188;52.324;8.032;2023-07-29T04:50:06;12.23;;;11.00;;
60344;SDS011;46188;52.324;8.032;2023-07-29T04:52:32;13.73;;;11.80;;
60344;SDS011;46188;52.324;8.032;2023-07-29T04:54:57;13.20;;;11.90;;
60344;SDS011;46188;52.324;8.032;2023-07-29T04:57:22;13.53;;;11.70;;
60344;SDS011;46188;52.324;8.032;2023-07-29T04:59:48;12.00;;;10.80;;
60344;SDS011;46188;52.324;8.032;2023-07-29T05:02:13;13.02;;;10.82;;
60344;SDS011;46188;52.324;8.032;2023-07-29T05:04:38;13.05;;;11.00;;
60344;SDS011;46188;52.324;8.032;2023-07-29T05:07:04;13.00;;;11.60;;
60344;SDS011;46188;52.324;8.032;2023-07-29T05:09:29;11.68;;;10.52;;
60344;SDS011;46188;52.324;8.032;2023-07-29T05:11:54;14.65;;;11.30;;
60344;SDS011;46188;52.324;8.032;2023-07-29T05:14:20;12.60;;;11.33;;
60344;SDS011;46188;52.324;8.032;2023-07-29T05:16:45;12.65;;;11.38;;
60344;SDS011;46188;52.324;8.032;2023-07-29T05:19:10;14.52;;;11.93;;
60344;SDS011;46188;52.324;8.032;2023-07-29T05:21:37;12.40;;;11.15;;
60344;SDS011;46188;52.324;8.032;2023-07-29T05:24:02;12.27;;;11.02;;
60344;SDS011;46188;52.324;8.032;2023-07-29T05:26:28;13.80;;;12.40;;
60344;SDS011;46188;52.324;8.032;2023-07-29T05:28:53;14.82;;;11.90;;
60344;SDS011;46188;52.324;8.032;2023-07-29T05:31:18;14.00;;;12.00;;
60344;SDS011;46188;52.324;8.032;2023-07-29T05:33:44;15.35;;;11.90;;
60344;SDS011;46188;52.324;8.032;2023-07-29T05:36:09;12.63;;;11.27;;
60344;SDS011;46188;52.324;8.032;2023-07-29T05:38:35;15.27;;;12.25;;
60344;SDS011;46188;52.324;8.032;2023-07-29T05:41:00;13.82;;;12.48;;
60344;SDS011;46188;52.324;8.032;2023-07-29T05:43:26;18.05;;;12.77;;
60344;SDS011;46188;52.324;8.032;2023-07-29T05:45:51;14.00;;;12.52;;
60344;SDS011;46188;52.324;8.032;2023-07-29T05:48:17;16.03;;;12.23;;
60344;SDS011;46188;52.324;8.032;2023-07-29T05:50:42;15.68;;;13.02;;
60344;SDS011;46188;52.324;8.032;2023-07-29T05:53:07;20.67;;;12.55;;
60344;SDS011;46188;52.324;8.032;2023-07-29T05:55:33;15.40;;;11.45;;
60344;SDS011;46188;52.324;8.032;2023-07-29T05:57:58;15.88;;;11.90;;
60344;SDS011;46188;52.324;8.032;2023-07-29T06:00:23;14.27;;;11.45;;
60344;SDS011;46188;52.324;8.032;2023-07-29T06:02:48;16.05;;;11.85;;
60344;SDS011;46188;52.324;8.032;2023-07-29T06:05:14;13.80;;;11.73;;
60344;SDS011;46188;52.324;8.032;2023-07-29T06:07:39;15.02;;;11.75;;
60344;SDS011;46188;52.324;8.032;2023-07-29T06:10:09;14.77;;;12.27;;
60344;SDS011;46188;52.324;8.032;2023-07-29T06:12:36;15.35;;;12.00;;
60344;SDS011;46188;52.324;8.032;2023-07-29T06:15:02;14.35;;;12.13;;
60344;SDS011;46188;52.324;8.032;2023-07-29T06:17:27;15.25;;;13.68;;
60344;SDS011;46188;52.324;8.032;2023-07-29T06:19:52;14.00;;;12.13;;
60344;SDS011;46188;52.324;8.032;2023-07-29T06:22:17;16.77;;;12.63;;
60344;SDS011;46188;52.324;8.032;2023-07-29T06:24:43;13.57;;;11.87;;
60344;SDS011;46188;52.324;8.032;2023-07-29T06:27:08;13.90;;;12.57;;
60344;SDS011;46188;52.324;8.032;2023-07-29T06:29:33;14.35;;;12.85;;
60344;SDS011;46188;52.324;8.032;2023-07-29T06:31:59;16.05;;;13.60;;
60344;SDS011;46188;52.324;8.032;2023-07-29T06:34:24;14.77;;;12.52;;
60344;SDS011;46188;52.324;8.032;2023-07-29T06:36:49;13.55;;;12.25;;
60344;SDS011;46188;52.324;8.032;2023-07-29T06:39:15;15.27;;;13.70;;
60344;SDS011;46188;52.324;8.032;2023-07-29T06:41:40;14.80;;;13.32;;
60344;SDS011;46188;52.324;8.032;2023-07-29T06:44:05;15.95;;;12.65;;
60344;SDS011;46188;52.324;8.032;2023-07-29T06:46:30;17.13;;;14.18;;
60344;SDS011;46188;52.324;8.032;2023-07-29T06:48:56;15.88;;;14.32;;
60344;SDS011;46188;52.324;8.032;2023-07-29T06:51:21;18.97;;;14.77;;
60344;SDS011;46188;52.324;8.032;2023-07-29T06:53:47;15.65;;;14.02;;
60344;SDS011;46188;52.324;8.032;2023-07-29T06:56:12;14.40;;;12.93;;
60344;SDS011;46188;52.324;8.032;2023-07-29T06:58:37;14.38;;;12.82;;
60344;SDS011;46188;52.324;8.032;2023-07-29T07:01:02;13.98;;;12.13;;
60344;SDS011;46188;52.324;8.032;2023-07-29T07:03:28;15.65;;;12.15;;
60344;SDS011;46188;52.324;8.032;2023-07-29T07:05:53;15.38;;;12.02;;
60344;SDS011;46188;52.324;8.032;2023-07-29T07:08:19;15.27;;;11.50;;
60344;SDS011;46188;52.324;8.032;2023-07-29T07:10:44;14.30;;;11.43;;
60344;SDS011;46188;52.324;8.032;2023-07-29T07:13:09;14.77;;;11.63;;
60344;SDS011;46188;52.324;8.032;2023-07-29T07:15:34;13.10;;;10.40;;
60344;SDS011;46188;52.324;8.032;2023-07-29T07:18:00;11.52;;;10.20;;
60344;SDS011;46188;52.324;8.032;2023-07-29T07:20:25;12.50;;;10.10;;
60344;SDS011;46188;52.324;8.032;2023-07-29T07:22:50;12.23;;;10.93;;
60344;SDS011;46188;52.324;8.032;2023-07-29T07:25:15;14.40;;;11.95;;
60344;SDS011;46188;52.324;8.032;2023-07-29T07:27:41;11.38;;;9.57;;
60344;SDS011;46188;52.324;8.032;2023-07-29T07:30:06;11.03;;;9.93;;
60344;SDS011;46188;52.324;8.032;2023-07-29T07:32:32;11.93;;;9.85;;
60344;SDS011;46188;52.324;8.032;2023-07-29T07:34:57;11.03;;;9.60;;
60344;SDS011;46188;52.324;8.032;2023-07-29T07:37:22;10.23;;;9.15;;
60344;SDS011;46188;52.324;8.032;2023-07-29T07:39:47;9.90;;;8.90;;
60344;SDS011;46188;52.324;8.032;2023-07-29T07:42:13;10.65;;;9.65;;
60344;SDS011;46188;52.324;8.032;2023-07-29T07:44:38;14.98;;;9.57;;
60344;SDS011;46188;52.324;8.032;2023-07-29T07:47:03;9.57;;;8.50;;
60344;SDS011;46188;52.324;8.032;2023-07-29T07:49:28;10.68;;;7.80;;
60344;SDS011;46188;52.324;8.032;2023-07-29T07:51:54;8.02;;;6.32;;
60344;SDS011;46188;52.324;8.032;2023-07-29T07:54:19;6.80;;;4.97;;
60344;SDS011;46188;52.324;8.032;2023-07-29T07:56:44;6.82;;;4.53;;
60344;SDS011;46188;52.324;8.032;2023-07-29T07:59:10;6.35;;;4.85;;
60344;SDS011;46188;52.324;8.032;2023-07-29T08:01:35;5.00;;;4.00;;
60344;SDS011;46188;52.324;8.032;2023-07-29T08:04:01;7.80;;;4.95;;
60344;SDS011;46188;52.324;8.032;2023-07-29T08:06:27;4.75;;;3.85;;
60344;SDS011;46188;52.324;8.032;2023-07-29T08:08:52;6.97;;;4.30;;
60344;SDS011;46188;52.324;8.032;2023-07-29T08:11:18;4.50;;;3.67;;
60344;SDS011;46188;52.324;8.032;2023-07-29T08:13:43;5.95;;;3.55;;
60344;SDS011;46188;52.324;8.032;2023-07-29T08:16:08;6.40;;;3.25;;
60344;SDS011;46188;52.324;8.032;2023-07-29T08:18:33;4.20;;;3.05;;
60344;SDS011;46188;52.324;8.032;2023-07-29T08:20:59;3.43;;;2.60;;
60344;SDS011;46188;52.324;8.032;2023-07-29T08:23:28;4.57;;;2.15;;
60344;SDS011;46188;52.324;8.032;2023-07-29T08:25:54;1.63;;;1.20;;
60344;SDS011;46188;52.324;8.032;2023-07-29T08:28:26;4.88;;;1.60;;
60344;SDS011;46188;52.324;8.032;2023-07-29T08:30:52;1.83;;;1.08;;
60344;SDS011;46188;52.324;8.032;2023-07-29T08:33:17;2.75;;;1.30;;
60344;SDS011;46188;52.324;8.032;2023-07-29T08:35:42;2.05;;;1.20;;
60344;SDS011;46188;52.324;8.032;2023-07-29T08:38:08;1.83;;;1.20;;
60344;SDS011;46188;52.324;8.032;2023-07-29T08:40:34;3.30;;;1.20;;
60344;SDS011;46188;52.324;8.032;2023-07-29T08:43:02;3.00;;;1.13;;
60344;SDS011;46188;52.324;8.032;2023-07-29T08:45:29;3.55;;;1.00;;
60344;SDS011;46188;52.324;8.032;2023-07-29T08:47:59;2.38;;;0.80;;
60344;SDS011;46188;52.324;8.032;2023-07-29T08:50:27;3.10;;;1.10;;
60344;SDS011;46188;52.324;8.032;2023-07-29T08:52:54;2.45;;;0.90;;
60344;SDS011;46188;52.324;8.032;2023-07-29T08:55:20;2.40;;;1.13;;
60344;SDS011;46188;52.324;8.032;2023-07-29T08:57:46;7.35;;;1.33;;
60344;SDS011;46188;52.324;8.032;2023-07-29T09:00:12;1.48;;;0.80;;
60344;SDS011;46188;52.324;8.032;2023-07-29T09:02:38;3.60;;;0.98;;
60344;SDS011;46188;52.324;8.032;2023-07-29T09:05:03;1.75;;;0.95;;
60344;SDS011;46188;52.324;8.032;2023-07-29T09:07:30;2.33;;;0.80;;
60344;SDS011;46188;52.324;8.032;2023-07-29T09:09:55;1.55;;;0.77;;
60344;SDS011;46188;52.324;8.032;2023-07-29T09:12:21;1.40;;;0.80;;
60344;SDS011;46188;52.324;8.032;2023-07-29T09:14:47;2.17;;;1.10;;
60344;SDS011;46188;52.324;8.032;2023-07-29T09:17:17;1.40;;;0.88;;
60344;SDS011;46188;52.324;8.032;2023-07-29T09:19:46;1.97;;;0.90;;
60344;SDS011;46188;52.324;8.032;2023-07-29T09:22:20;3.30;;;1.00;;
60344;SDS011;46188;52.324;8.032;2023-07-29T09:24:46;1.50;;;0.80;;
60344;SDS011;46188;52.324;8.032;2023-07-29T09:27:27;1.35;;;0.80;;
60344;SDS011;46188;52.324;8.032;2023-07-29T09:29:56;2.03;;;0.90;;
60344;SDS011;46188;52.324;8.032;2023-07-29T09:32:22;2.30;;;0.93;;
60344;SDS011;46188;52.324;8.032;2023-07-29T09:34:48;2.20;;;0.80;;
60344;SDS011;46188;52.324;8.032;2023-07-29T09:37:17;8.57;;;2.40;;
60344;SDS011;46188;52.324;8.032;2023-07-29T09:39:45;3.15;;;1.25;;
60344;SDS011;46188;52.324;8.032;2023-07-29T09:42:16;2.13;;;1.15;;
60344;SDS011;46188;52.324;8.032;2023-07-29T09:44:42;1.73;;;1.00;;
60344;SDS011;46188;52.324;8.032;2023-07-29T09:47:07;2.57;;;1.00;;
60344;SDS011;46188;52.324;8.032;2023-07-29T09:49:34;2.85;;;0.93;;
60344;SDS011;46188;52.324;8.032;2023-07-29T09:52:01;4.65;;;1.25;;
60344;SDS011;46188;52.324;8.032;2023-07-29T09:54:29;3.30;;;1.02;;
60344;SDS011;46188;52.324;8.032;2023-07-29T09:56:55;3.67;;;1.33;;
60344;SDS011;46188;52.324;8.032;2023-07-29T09:59:22;2.95;;;1.00;;
60344;SDS011;46188;52.324;8.032;2023-07-29T10:01:48;2.75;;;1.48;;
60344;SDS011;46188;52.324;8.032;2023-07-29T10:04:15;2.17;;;1.00;;
60344;SDS011;46188;52.324;8.032;2023-07-29T10:06:41;1.70;;;1.00;;
60344;SDS011;46188;52.324;8.032;2023-07-29T10:09:07;1.70;;;1.05;;
60344;SDS011;46188;52.324;8.032;2023-07-29T10:11:35;3.30;;;1.20;;
60344;SDS011;46188;52.324;8.032;2023-07-29T10:14:02;2.03;;;1.00;;
60344;SDS011;46188;52.324;8.032;2023-07-29T10:16:27;1.35;;;0.73;;
60344;SDS011;46188;52.324;8.032;2023-07-29T10:18:53;2.42;;;0.80;;
60344;SDS011;46188;52.324;8.032;2023-07-29T10:21:19;1.98;;;0.82;;
60344;SDS011;46188;52.324;8.032;2023-07-29T10:23:47;1.83;;;0.98;;
60344;SDS011;46188;52.324;8.032;2023-07-29T10:26:15;2.67;;;1.00;;
60344;SDS011;46188;52.324;8.032;2023-07-29T10:28:46;1.65;;;0.93;;
60344;SDS011;46188;52.324;8.032;2023-07-29T10:31:12;1.75;;;0.68;;
60344;SDS011;46188;52.324;8.032;2023-07-29T10:33:40;1.92;;;0.93;;
60344;SDS011;46188;52.324;8.032;2023-07-29T10:36:05;3.50;;;0.80;;
60344;SDS011;46188;52.324;8.032;2023-07-29T10:38:31;1.85;;;1.20;;
60344;SDS011;46188;52.324;8.032;2023-07-29T10:40:57;1.38;;;0.85;;
60344;SDS011;46188;52.324;8.032;2023-07-29T10:43:26;1.25;;;0.82;;
60344;SDS011;46188;52.324;8.032;2023-07-29T10:45:55;2.03;;;1.10;;
60344;SDS011;46188;52.324;8.032;2023-07-29T10:54:00;1.42;;;0.73;;
60344;SDS011;46188;52.324;8.032;2023-07-29T10:56:35;1.15;;;0.75;;
60344;SDS011;46188;52.324;8.032;2023-07-29T11:01:37;2.60;;;1.17;;
60344;SDS011;46188;52.324;8.032;2023-07-29T11:15:16;1.60;;;0.77;;
60344;SDS011;46188;52.324;8.032;2023-07-29T11:17:50;1.40;;;0.85;;
60344;SDS011;46188;52.324;8.032;2023-07-29T11:20:25;1.45;;;0.88;;
60344;SDS011;46188;52.324;8.032;2023-07-29T11:22:53;1.20;;;0.70;;
60344;SDS011;46188;52.324;8.032;2023-07-29T11:25:21;2.55;;;0.70;;
60344;SDS011;46188;52.324;8.032;2023-07-29T11:27:47;1.90;;;0.60;;
60344;SDS011;46188;52.324;8.032;2023-07-29T11:30:13;1.33;;;0.90;;
60344;SDS011;46188;52.324;8.032;2023-07-29T11:32:40;0.95;;;0.63;;
60344;SDS011;46188;52.324;8.032;2023-07-29T11:37:33;2.65;;;0.98;;
60344;SDS011;46188;52.324;8.032;2023-07-29T11:39:59;2.75;;;0.80;;
60344;SDS011;46188;52.324;8.032;2023-07-29T11:42:26;1.67;;;0.77;;
60344;SDS011;46188;52.324;8.032;2023-07-29T11:44:52;2.80;;;1.00;;
60344;SDS011;46188;52.324;8.032;2023-07-29T11:47:18;1.83;;;0.90;;
60344;SDS011;46188;52.324;8.032;2023-07-29T11:49:43;4.60;;;1.00;;
60344;SDS011;46188;52.324;8.032;2023-07-29T11:52:09;2.00;;;0.83;;
60344;SDS011;46188;52.324;8.032;2023-07-29T11:54:36;3.10;;;0.90;;
60344;SDS011;46188;52.324;8.032;2023-07-29T11:57:03;1.20;;;0.77;;
60344;SDS011;46188;52.324;8.032;2023-07-29T11:59:30;1.42;;;1.00;;
60344;SDS011;46188;52.324;8.032;2023-07-29T12:01:58;2.60;;;1.17;;
60344;SDS011;46188;52.324;8.032;2023-07-29T12:04:25;1.95;;;0.98;;
60344;SDS011;46188;52.324;8.032;2023-07-29T12:06:51;1.70;;;0.90;;
60344;SDS011;46188;52.324;8.032;2023-07-29T12:09:16;1.55;;;0.80;;
60344;SDS011;46188;52.324;8.032;2023-07-29T12:11:42;2.88;;;1.10;;
60344;SDS011;46188;52.324;8.032;2023-07-29T12:14:07;2.00;;;0.90;;
60344;SDS011;46188;52.324;8.032;2023-07-29T12:16:40;1.40;;;0.90;;
60344;SDS011;46188;52.324;8.032;2023-07-29T12:19:08;2.55;;;0.90;;
60344;SDS011;46188;52.324;8.032;2023-07-29T12:21:33;1.35;;;0.80;;
60344;SDS011;46188;52.324;8.032;2023-07-29T12:23:58;2.25;;;0.88;;
60344;SDS011;46188;52.324;8.032;2023-07-29T12:26:27;6.03;;;1.17;;
60344;SDS011;46188;52.324;8.032;2023-07-29T12:28:53;1.58;;;1.00;;
60344;SDS011;46188;52.324;8.032;2023-07-29T12:31:18;3.83;;;1.10;;
60344;SDS011;46188;52.324;8.032;2023-07-29T12:33:43;2.22;;;1.23;;
60344;SDS011;46188;52.324;8.032;2023-07-29T12:36:09;1.52;;;0.98;;
60344;SDS011;46188;52.324;8.032;2023-07-29T12:38:35;2.10;;;1.10;;
60344;SDS011;46188;52.324;8.032;2023-07-29T12:41:00;5.13;;;1.30;;
60344;SDS011;46188;52.324;8.032;2023-07-29T12:43:26;4.57;;;1.05;;
60344;SDS011;46188;52.324;8.032;2023-07-29T12:45:51;1.85;;;0.88;;
60344;SDS011;46188;52.324;8.032;2023-07-29T12:48:17;2.60;;;1.30;;
60344;SDS011;46188;52.324;8.032;2023-07-29T12:50:42;4.82;;;1.92;;
60344;SDS011;46188;52.324;8.032;2023-07-29T12:53:08;3.85;;;1.40;;
60344;SDS011;46188;52.324;8.032;2023-07-29T12:55:37;3.38;;;1.67;;
60344;SDS011;46188;52.324;8.032;2023-07-29T12:58:03;3.42;;;1.30;;
60344;SDS011;46188;52.324;8.032;2023-07-29T13:00:28;3.25;;;1.77;;
60344;SDS011;46188;52.324;8.032;2023-07-29T13:02:54;2.92;;;1.73;;
60344;SDS011;46188;52.324;8.032;2023-07-29T13:05:19;3.13;;;1.38;;
60344;SDS011;46188;52.324;8.032;2023-07-29T13:07:45;1.70;;;1.30;;
60344;SDS011;46188;52.324;8.032;2023-07-29T13:10:11;2.72;;;1.58;;
60344;SDS011;46188;52.324;8.032;2023-07-29T13:12:37;4.43;;;1.60;;
60344;SDS011;46188;52.324;8.032;2023-07-29T13:15:03;2.13;;;1.35;;
60344;SDS011;46188;52.324;8.032;2023-07-29T13:17:29;1.80;;;1.10;;
60344;SDS011;46188;52.324;8.032;2023-07-29T13:19:54;1.70;;;1.10;;
60344;SDS011;46188;52.324;8.032;2023-07-29T13:22:19;3.88;;;1.10;;
60344;SDS011;46188;52.324;8.032;2023-07-29T13:24:45;1.30;;;0.98;;
60344;SDS011;46188;52.324;8.032;2023-07-29T13:27:11;1.33;;;0.93;;
60344;SDS011;46188;52.324;8.032;2023-07-29T13:29:36;3.08;;;1.13;;
60344;SDS011;46188;52.324;8.032;2023-07-29T13:32:02;2.03;;;1.00;;
60344;SDS011;46188;52.324;8.032;2023-07-29T13:34:27;3.17;;;1.00;;
60344;SDS011;46188;52.324;8.032;2023-07-29T13:36:52;2.70;;;0.90;;
60344;SDS011;46188;52.324;8.032;2023-07-29T13:39:18;1.83;;;1.05;;
60344;SDS011;46188;52.324;8.032;2023-07-29T13:41:43;1.43;;;0.90;;
60344;SDS011;46188;52.324;8.032;2023-07-29T13:44:08;1.60;;;0.90;;
60344;SDS011;46188;52.324;8.032;2023-07-29T13:46:34;1.70;;;1.02;;
60344;SDS011;46188;52.324;8.032;2023-07-29T13:48:59;1.27;;;0.80;;
60344;SDS011;46188;52.324;8.032;2023-07-29T13:51:24;2.57;;;1.03;;
60344;SDS011;46188;52.324;8.032;2023-07-29T13:53:49;1.87;;;0.90;;
60344;SDS011;46188;52.324;8.032;2023-07-29T13:56:15;1.55;;;1.00;;
60344;SDS011;46188;52.324;8.032;2023-07-29T13:58:40;3.65;;;1.08;;
60344;SDS011;46188;52.324;8.032;2023-07-29T14:01:05;1.60;;;1.00;;
60344;SDS011;46188;52.324;8.032;2023-07-29T14:03:31;1.45;;;0.90;;
60344;SDS011;46188;52.324;8.032;2023-07-29T14:05:56;2.17;;;0.98;;
60344;SDS011;46188;52.324;8.032;2023-07-29T14:08:21;2.13;;;1.08;;
60344;SDS011;46188;52.324;8.032;2023-07-29T14:10:48;2.10;;;1.00;;
60344;SDS011;46188;52.324;8.032;2023-07-29T14:13:14;1.35;;;0.95;;
60344;SDS011;46188;52.324;8.032;2023-07-29T14:15:39;2.77;;;1.20;;
60344;SDS011;46188;52.324;8.032;2023-07-29T14:18:04;2.27;;;1.10;;
60344;SDS011;46188;52.324;8.032;2023-07-29T14:20:29;1.85;;;1.00;;
60344;SDS011;46188;52.324;8.032;2023-07-29T14:22:55;1.60;;;1.07;;
60344;SDS011;46188;52.324;8.032;2023-07-29T14:25:20;2.20;;;0.97;;
60344;SDS011;46188;52.324;8.032;2023-07-29T14:27:45;2.67;;;1.23;;
60344;SDS011;46188;52.324;8.032;2023-07-29T14:30:10;3.10;;;1.30;;
60344;SDS011;46188;52.324;8.032;2023-07-29T14:32:36;1.75;;;1.15;;
60344;SDS011;46188;52.324;8.032;2023-07-29T14:35:02;2.67;;;1.35;;
60344;SDS011;46188;52.324;8.032;2023-07-29T14:37:29;1.98;;;1.33;;
60344;SDS011;46188;52.324;8.032;2023-07-29T14:39:55;2.60;;;1.30;;
60344;SDS011;46188;52.324;8.032;2023-07-29T14:42:21;2.05;;;1.30;;
60344;SDS011;46188;52.324;8.032;2023-07-29T14:44:47;2.90;;;1.27;;
60344;SDS011;46188;52.324;8.032;2023-07-29T14:47:12;1.95;;;1.35;;
60344;SDS011;46188;52.324;8.032;2023-07-29T14:49:37;2.67;;;1.60;;
60344;SDS011;46188;52.324;8.032;2023-07-29T14:52:03;3.90;;;1.58;;
60344;SDS011;46188;52.324;8.032;2023-07-29T14:54:28;2.45;;;1.80;;
60344;SDS011;46188;52.324;8.032;2023-07-29T14:56:53;4.40;;;1.80;;
60344;SDS011;46188;52.324;8.032;2023-07-29T14:59:19;2.80;;;1.50;;
60344;SDS011;46188;52.324;8.032;2023-07-29T15:01:44;2.53;;;1.65;;